Time;durP1;ratioP1;P1;durP2;ratioP2;P2;SDS_P1;SDS_P2;PMS_P1;PMS_P2;Temp;Humidity;BMP_temperature;BMP_pressure;BME280_temperature;BME280_humidity;BME280_pressure;Samples;Min_cycle;Max_cycle;Signal;HPM_P1;HPM_P2
2021/01/09 00:02:16;;;;;;;27.33;14.10;;;-0.60;99.90;;;;;;6246546;23;20011;-76
2021/01/09 00:04:42;;;;;;;25.30;13.55;;;-0.60;99.90;;;;;;6219689;23;20000;-76
2021/01/09 00:07:11;;;;;;;29.25;14.95;;;-0.60;99.90;;;;;;6246571;23;20000;-76
2021/01/09 00:09:39;;;;;;;26.30;14.02;;;-0.50;99.90;;;;;;6219464;23;20010;-76
2021/01/09 00:12:10;;;;;;;27.70;15.45;;;-0.50;99.90;;;;;;6219506;23;20004;-76
2021/01/09 00:14:36;;;;;;;25.45;13.85;;;-0.60;99.90;;;;;;6219526;23;20008;-76
2021/01/09 00:17:02;;;;;;;32.53;16.30;;;-0.60;99.90;;;;;;6219238;23;20036;-76
2021/01/09 00:19:27;;;;;;;34.47;17.45;;;-0.60;99.90;;;;;;6219182;23;20016;-76
2021/01/09 00:21:53;;;;;;;31.83;15.75;;;-0.70;99.90;;;;;;6219261;23;20007;-76
2021/01/09 00:24:19;;;;;;;35.75;18.02;;;-0.70;99.90;;;;;;6219291;23;20008;-76
2021/01/09 00:26:44;;;;;;;29.10;15.73;;;-0.70;99.90;;;;;;6246109;23;20000;-77
2021/01/09 00:29:10;;;;;;;33.45;16.15;;;-0.70;99.90;;;;;;6219088;23;20094;-76
2021/01/09 00:31:35;;;;;;;27.20;14.65;;;-0.70;99.90;;;;;;6246144;23;20038;-76
2021/01/09 00:34:01;;;;;;;30.80;15.80;;;-0.70;99.90;;;;;;6219366;23;20011;-76
2021/01/09 00:36:27;;;;;;;32.13;15.50;;;-0.70;99.90;;;;;;6246381;23;20455;-77
2021/01/09 00:38:52;;;;;;;30.70;15.85;;;-0.70;99.90;;;;;;6246692;23;20000;-76
2021/01/09 00:41:31;;;;;;;31.75;17.20;;;-0.60;99.90;;;;;;6219176;23;20073;-76
2021/01/09 00:43:58;;;;;;;30.05;15.75;;;-0.60;99.90;;;;;;6219278;23;20087;-76
2021/01/09 00:46:25;;;;;;;33.83;17.25;;;-0.60;99.90;;;;;;6219003;23;20016;-77
2021/01/09 00:48:51;;;;;;;27.98;15.23;;;-0.60;99.90;;;;;;6245618;23;20011;-76
2021/01/09 00:51:17;;;;;;;30.08;15.90;;;-0.50;99.90;;;;;;6246044;23;20389;-76
2021/01/09 00:53:43;;;;;;;27.55;15.80;;;-0.50;99.90;;;;;;6219050;23;20352;-76
2021/01/09 00:56:13;;;;;;;28.95;16.30;;;-0.50;99.90;;;;;;6245929;23;20344;-76
2021/01/09 00:58:38;;;;;;;28.80;14.93;;;-0.50;99.90;;;;;;6218812;23;20019;-76
2021/01/09 01:01:04;;;;;;;27.80;15.10;;;-0.50;99.90;;;;;;6218901;23;20004;-76
2021/01/09 01:03:30;;;;;;;30.35;15.65;;;-0.50;99.90;;;;;;6245753;23;19998;-76
2021/01/09 01:05:55;;;;;;;30.08;15.55;;;-0.50;99.90;;;;;;6218838;23;20000;-76
2021/01/09 01:08:21;;;;;;;31.27;16.48;;;-0.50;99.90;;;;;;6219309;23;20000;-78
2021/01/09 01:10:48;;;;;;;35.00;16.40;;;-0.50;99.90;;;;;;6218797;23;20015;-75
2021/01/09 01:13:14;;;;;;;32.60;16.88;;;-0.50;99.90;;;;;;6218421;23;20089;-76
2021/01/09 01:15:40;;;;;;;33.25;16.88;;;-0.50;99.90;;;;;;6245884;23;20028;-76
2021/01/09 01:18:06;;;;;;;31.95;16.75;;;-0.50;99.90;;;;;;6245567;23;20007;-76
2021/01/09 01:20:31;;;;;;;32.80;17.35;;;-0.60;99.90;;;;;;6245627;23;20327;-76
2021/01/09 01:22:57;;;;;;;30.23;16.48;;;-0.60;99.90;;;;;;6246099;23;20031;-75
2021/01/09 01:25:22;;;;;;;31.63;16.98;;;-0.60;99.90;;;;;;6245693;23;20003;-76
2021/01/09 01:27:48;;;;;;;32.92;17.17;;;-0.60;99.90;;;;;;6218852;23;20006;-78
2021/01/09 01:30:14;;;;;;;36.63;18.60;;;-0.50;99.90;;;;;;6219262;23;20550;-78
2021/01/09 01:32:39;;;;;;;26.30;15.27;;;-0.50;99.90;;;;;;6219159;23;20340;-76
2021/01/09 01:35:06;;;;;;;33.75;18.38;;;-0.60;99.90;;;;;;6218795;23;20072;-76
2021/01/09 01:37:31;;;;;;;36.53;18.75;;;-0.60;99.90;;;;;;6218749;23;20000;-75
2021/01/09 01:39:57;;;;;;;31.20;16.73;;;-0.60;99.90;;;;;;6246007;23;20091;-77
2021/01/09 01:42:22;;;;;;;27.90;16.02;;;-0.60;99.90;;;;;;6246740;23;20001;-77
2021/01/09 01:44:48;;;;;;;30.63;16.00;;;-0.60;99.90;;;;;;6245902;23;20301;-76
2021/01/09 01:47:17;;;;;;;34.33;18.10;;;-0.60;99.90;;;;;;6219334;23;20004;-77
2021/01/09 01:49:45;;;;;;;39.72;21.17;;;-0.60;99.90;;;;;;6219959;23;20012;-77
2021/01/09 01:52:13;;;;;;;33.13;16.73;;;-0.70;99.90;;;;;;6219385;23;20092;-76
2021/01/09 01:54:38;;;;;;;32.25;18.00;;;-0.60;99.90;;;;;;6245368;23;20436;-76
2021/01/09 01:57:07;;;;;;;33.88;18.05;;;-0.60;99.90;;;;;;6218538;23;20004;-75
2021/01/09 01:59:33;;;;;;;29.58;16.15;;;-0.60;99.90;;;;;;6245313;23;20071;-76
2021/01/09 02:02:01;;;;;;;30.48;15.60;;;-0.60;99.90;;;;;;6218533;23;20405;-76
2021/01/09 02:04:27;;;;;;;31.77;16.50;;;-0.60;99.90;;;;;;6218577;23;20000;-76
2021/01/09 02:06:53;;;;;;;32.97;15.90;;;-0.60;99.90;;;;;;6245405;23;20001;-76
2021/01/09 02:09:22;;;;;;;32.97;18.17;;;-0.60;99.90;;;;;;6245548;23;20032;-76
2021/01/09 02:12:00;;;;;;;33.42;16.92;;;-0.70;99.90;;;;;;6218526;23;20046;-76
2021/01/09 02:14:50;;;;;;;39.05;18.35;;;-0.60;99.90;;;;;;6218690;23;20454;-78
2021/01/09 02:17:18;;;;;;;33.28;17.52;;;-0.70;99.90;;;;;;6245835;23;20438;-76
2021/01/09 02:19:44;;;;;;;35.10;17.88;;;-0.70;99.90;;;;;;6218475;23;20004;-78
2021/01/09 02:22:17;;;;;;;32.45;16.45;;;-0.70;99.90;;;;;;6219121;23;20008;-78
2021/01/09 02:24:44;;;;;;;30.67;15.85;;;-0.70;99.90;;;;;;6219961;23;20052;-76
2021/01/09 02:27:11;;;;;;;34.00;16.17;;;-0.70;99.90;;;;;;6247965;23;19996;-76
2021/01/09 02:29:55;;;;;;;34.55;18.77;;;-0.70;99.90;;;;;;6248043;23;19996;-78
2021/01/09 02:32:28;;;;;;;32.80;17.85;;;-0.70;99.90;;;;;;6249554;23;20203;-78
2021/01/09 02:34:56;;;;;;;28.88;15.95;;;-0.70;99.90;;;;;;6247937;23;20000;-76
2021/01/09 02:37:23;;;;;;;31.13;16.77;;;-0.70;99.90;;;;;;6220574;23;20451;-76
2021/01/09 02:39:50;;;;;;;31.25;16.13;;;-0.70;99.90;;;;;;6220015;23;20091;-76
2021/01/09 02:42:18;;;;;;;28.88;16.23;;;-0.60;99.90;;;;;;6247241;23;20050;-76
2021/01/09 02:44:44;;;;;;;31.67;16.17;;;-0.70;99.90;;;;;;6220115;23;20087;-76
2021/01/09 02:47:09;;;;;;;27.98;16.13;;;-0.70;99.90;;;;;;6248642;23;20003;-77
2021/01/09 02:49:35;;;;;;;26.10;15.02;;;-0.70;99.90;;;;;;6247086;23;20016;-76
2021/01/09 02:52:00;;;;;;;29.90;16.60;;;-0.70;99.90;;;;;;6246986;23;20118;-76
2021/01/09 02:54:26;;;;;;;34.35;17.25;;;-0.70;99.90;;;;;;6220109;23;20004;-76
2021/01/09 02:56:52;;;;;;;37.50;19.08;;;-0.70;99.90;;;;;;6221568;23;20539;-78
2021/01/09 02:59:17;;;;;;;36.75;19.35;;;-0.70;99.90;;;;;;6249329;23;20387;-77
2021/01/09 03:01:43;;;;;;;34.97;17.80;;;-0.70;99.90;;;;;;6250256;23;20050;-78
2021/01/09 03:04:08;;;;;;;31.63;17.65;;;-0.70;99.90;;;;;;6223534;23;20000;-77
2021/01/09 03:06:34;;;;;;;39.15;20.77;;;-0.70;99.90;;;;;;6250128;23;20055;-78
2021/01/09 03:08:59;;;;;;;36.90;19.73;;;-0.70;99.90;;;;;;6249746;23;20005;-78
2021/01/09 03:11:25;;;;;;;32.10;17.75;;;-0.70;99.90;;;;;;6223172;23;20008;-77
2021/01/09 03:13:51;;;;;;;34.83;17.58;;;-0.70;99.90;;;;;;6250330;23;20004;-77
2021/01/09 03:16:16;;;;;;;33.83;17.38;;;-0.70;99.90;;;;;;6250470;23;20102;-78
2021/01/09 03:18:42;;;;;;;31.92;17.95;;;-0.70;99.90;;;;;;6223637;23;20004;-78
2021/01/09 03:21:08;;;;;;;40.70;19.15;;;-0.70;99.90;;;;;;6223315;23;20015;-77
2021/01/09 03:23:33;;;;;;;38.53;19.42;;;-0.70;99.90;;;;;;6222556;23;20000;-78
2021/01/09 03:25:59;;;;;;;36.72;18.88;;;-0.70;99.90;;;;;;6223551;23;20000;-77
2021/01/09 03:28:24;;;;;;;40.03;19.85;;;-0.70;99.90;;;;;;6249769;23;19996;-78
2021/01/09 03:30:50;;;;;;;34.67;17.27;;;-0.70;99.90;;;;;;6249394;23;20012;-77
2021/01/09 03:33:16;;;;;;;34.30;17.52;;;-0.70;99.90;;;;;;6250008;23;20003;-78
2021/01/09 03:35:42;;;;;;;29.45;16.27;;;-0.70;99.90;;;;;;6223402;23;20039;-77
2021/01/09 03:38:08;;;;;;;28.45;15.18;;;-0.60;99.90;;;;;;6248301;23;20008;-77
2021/01/09 03:40:34;;;;;;;33.05;17.67;;;-0.60;99.90;;;;;;6219630;23;20415;-77
2021/01/09 03:43:00;;;;;;;33.97;17.63;;;-0.60;99.90;;;;;;6246501;23;20505;-77
2021/01/09 03:45:25;;;;;;;31.60;17.23;;;-0.60;99.90;;;;;;6246429;23;20424;-77
2021/01/09 03:47:51;;;;;;;33.35;17.33;;;-0.60;99.90;;;;;;6246440;23;20043;-78
2021/01/09 03:50:17;;;;;;;33.20;16.77;;;-0.60;99.90;;;;;;6219624;23;20050;-77
2021/01/09 03:52:42;;;;;;;34.85;19.13;;;-0.60;99.90;;;;;;6246376;23;19999;-77
2021/01/09 03:55:08;;;;;;;39.72;20.58;;;-0.60;99.90;;;;;;6219477;23;20008;-77
2021/01/09 03:57:34;;;;;;;36.78;18.85;;;-0.70;99.90;;;;;;6246167;23;20083;-77
2021/01/09 03:59:59;;;;;;;35.88;17.77;;;-0.70;99.90;;;;;;6246141;23;20032;-77
2021/01/09 04:02:25;;;;;;;31.67;16.38;;;-0.70;99.90;;;;;;6219302;23;20000;-77
2021/01/09 04:04:50;;;;;;;33.60;17.42;;;-0.70;99.90;;;;;;6219289;23;20398;-77
2021/01/09 04:07:16;;;;;;;34.85;18.77;;;-0.70;99.90;;;;;;6219344;23;20046;-77
2021/01/09 04:09:42;;;;;;;36.90;18.30;;;-0.70;99.90;;;;;;6219229;23;20130;-77
2021/01/09 04:12:08;;;;;;;34.83;18.23;;;-0.70;99.90;;;;;;6246110;23;20011;-77
2021/01/09 04:14:33;;;;;;;34.88;18.80;;;-0.70;99.90;;;;;;6219211;23;20047;-77
2021/01/09 04:16:59;;;;;;;39.92;20.50;;;-0.70;99.90;;;;;;6246016;23;20000;-77
2021/01/09 04:19:24;;;;;;;36.22;19.65;;;-0.70;99.90;;;;;;6219019;23;20011;-78
2021/01/09 04:21:51;;;;;;;37.00;19.15;;;-0.70;99.90;;;;;;6246087;23;20004;-77
2021/01/09 04:24:24;;;;;;;44.55;22.23;;;-0.80;99.90;;;;;;6219238;23;20305;-77
2021/01/09 04:26:58;;;;;;;42.03;21.05;;;-0.80;99.90;;;;;;6219155;23;20016;-77
2021/01/09 04:29:24;;;;;;;35.08;18.88;;;-0.80;99.90;;;;;;6246100;23;20065;-77
2021/01/09 04:31:50;;;;;;;36.90;19.10;;;-0.80;99.90;;;;;;6219263;23;20032;-77
2021/01/09 04:34:17;;;;;;;33.30;18.10;;;-0.80;99.90;;;;;;6245986;23;20007;-77
2021/01/09 04:36:42;;;;;;;34.78;18.20;;;-0.80;99.90;;;;;;6219048;23;20031;-77
2021/01/09 04:39:08;;;;;;;43.90;21.27;;;-0.80;99.90;;;;;;6218922;23;20004;-77
2021/01/09 04:41:36;;;;;;;39.00;20.88;;;-0.80;99.90;;;;;;6245950;23;20493;-77
2021/01/09 04:44:02;;;;;;;39.17;19.88;;;-0.80;99.90;;;;;;6246332;23;20424;-77
2021/01/09 04:46:29;;;;;;;38.20;20.10;;;-0.80;99.90;;;;;;6219079;23;20015;-77
2021/01/09 04:51:28;;;;;;;35.05;19.15;;;-0.90;99.90;;;;;;6275108;22;20031;-73
2021/01/09 04:53:55;;;;;;;36.20;19.05;;;-0.90;99.90;;;;;;6276632;22;20478;-73
2021/01/09 04:56:21;;;;;;;38.03;20.52;;;-0.90;99.90;;;;;;6276245;22;19995;-74
2021/01/09 04:58:46;;;;;;;36.97;19.52;;;-0.90;99.90;;;;;;6249063;22;20453;-73
2021/01/09 05:01:13;;;;;;;38.17;20.75;;;-0.90;99.90;;;;;;6248746;22;20000;-73
2021/01/09 05:03:39;;;;;;;52.30;24.65;;;-0.90;99.90;;;;;;6245753;23;20042;-74
2021/01/09 05:06:05;;;;;;;41.05;22.10;;;-0.90;99.90;;;;;;6218946;23;20004;-73
2021/01/09 05:08:30;;;;;;;51.55;23.40;;;-0.90;99.90;;;;;;6244070;23;20008;-73
2021/01/09 05:10:57;;;;;;;46.83;23.67;;;-1.00;99.90;;;;;;6245590;22;20091;-73
2021/01/09 05:13:23;;;;;;;43.17;22.10;;;-0.90;99.90;;;;;;6245753;23;20000;-73
2021/01/09 05:15:49;;;;;;;44.30;22.27;;;-0.90;99.90;;;;;;6245840;23;20084;-74
2021/01/09 05:18:17;;;;;;;42.17;21.38;;;-0.90;99.90;;;;;;6245437;23;20004;-74
2021/01/09 05:20:43;;;;;;;49.80;24.20;;;-0.90;99.90;;;;;;6243863;22;20099;-74
2021/01/09 05:23:10;;;;;;;46.63;23.33;;;-0.90;99.90;;;;;;6218685;23;20019;-74
2021/01/09 05:25:36;;;;;;;40.60;19.30;;;-0.90;99.90;;;;;;6245840;23;20000;-73
2021/01/09 05:28:04;;;;;;;41.20;19.88;;;-0.90;99.90;;;;;;6218754;23;20004;-73
2021/01/09 05:30:31;;;;;;;36.08;19.70;;;-0.90;99.90;;;;;;6245386;22;20492;-73
2021/01/09 05:33:00;;;;;;;38.60;20.17;;;-0.90;99.90;;;;;;6243988;23;20065;-73
2021/01/09 05:35:27;;;;;;;37.95;19.75;;;-0.80;99.90;;;;;;6245506;23;20019;-73
2021/01/09 05:37:53;;;;;;;34.33;18.17;;;-0.80;99.90;;;;;;6218631;23;20054;-74
2021/01/09 05:40:18;;;;;;;35.75;20.10;;;-0.90;99.90;;;;;;6245709;22;20001;-74
2021/01/09 05:42:44;;;;;;;34.08;17.38;;;-0.90;99.90;;;;;;6245544;23;20046;-74
2021/01/09 05:45:11;;;;;;;38.58;19.75;;;-0.80;99.90;;;;;;6245530;23;20000;-74
2021/01/09 05:47:38;;;;;;;35.10;18.73;;;-0.90;99.90;;;;;;6245424;23;19997;-73
2021/01/09 05:50:06;;;;;;;35.90;18.13;;;-0.90;99.90;;;;;;6243679;22;20023;-73
2021/01/09 05:52:38;;;;;;;38.65;19.67;;;-0.90;99.90;;;;;;6218655;23;20024;-73
2021/01/09 05:55:06;;;;;;;35.42;18.17;;;-0.80;99.90;;;;;;6246165;23;20106;-73
2021/01/09 05:57:33;;;;;;;40.53;19.42;;;-0.80;99.90;;;;;;6245256;23;20058;-73
2021/01/09 06:00:11;;;;;;;38.63;18.77;;;-0.80;99.90;;;;;;6246656;22;20328;-73
2021/01/09 06:03:01;;;;;;;36.05;19.02;;;-0.90;99.90;;;;;;6247488;23;20063;-73
2021/01/09 06:05:45;;;;;;;34.75;17.70;;;-0.90;99.90;;;;;;6247421;23;20038;-73
2021/01/09 06:08:27;;;;;;;33.53;17.65;;;-0.90;99.90;;;;;;6245975;23;20008;-74
2021/01/09 06:10:56;;;;;;;36.88;18.15;;;-0.90;99.90;;;;;;6247417;22;19996;-73
2021/01/09 06:13:27;;;;;;;35.78;19.08;;;-0.90;99.90;;;;;;6247765;23;20000;-73
2021/01/09 06:15:56;;;;;;;40.47;19.48;;;-0.90;99.90;;;;;;6247352;23;19997;-73
2021/01/09 06:18:22;;;;;;;34.10;18.20;;;-0.90;99.90;;;;;;6247474;23;20011;-74
2021/01/09 06:20:48;;;;;;;35.40;17.88;;;-0.90;99.90;;;;;;6220398;23;20004;-73
2021/01/09 06:23:15;;;;;;;36.85;19.13;;;-0.90;99.90;;;;;;6247215;23;20011;-74
2021/01/09 06:25:41;;;;;;;34.45;19.20;;;-0.90;99.90;;;;;;6247191;23;20519;-73
2021/01/09 06:28:12;;;;;;;34.53;18.77;;;-0.90;99.90;;;;;;6220308;23;20035;-73
2021/01/09 06:30:38;;;;;;;38.03;19.35;;;-0.90;99.90;;;;;;6247280;22;20008;-73
2021/01/09 06:33:04;;;;;;;37.17;19.25;;;-1.00;99.90;;;;;;6247120;23;20000;-75
2021/01/09 06:35:35;;;;;;;36.75;20.52;;;-1.00;99.90;;;;;;6247095;23;20000;-73
2021/01/09 06:38:01;;;;;;;35.50;19.05;;;-1.00;99.90;;;;;;6247424;23;20007;-73
2021/01/09 06:40:27;;;;;;;35.35;19.42;;;-1.00;99.90;;;;;;6247365;22;20006;-73
2021/01/09 06:42:55;;;;;;;35.35;18.90;;;-1.00;99.90;;;;;;6247021;23;20471;-73
2021/01/09 06:45:22;;;;;;;37.88;19.02;;;-1.00;99.90;;;;;;6247380;23;20003;-74
2021/01/09 06:48:00;;;;;;;37.58;19.33;;;-1.00;99.90;;;;;;6245624;23;20016;-73
2021/01/09 06:50:25;;;;;;;35.67;18.95;;;-1.00;99.90;;;;;;6246976;22;20494;-73
2021/01/09 06:53:01;;;;;;;36.95;19.40;;;-1.00;99.90;;;;;;6246960;23;20000;-73
2021/01/09 06:55:53;;;;;;;35.85;18.55;;;-1.00;99.90;;;;;;6247628;23;20008;-73
2021/01/09 06:58:24;;;;;;;35.03;19.03;;;-0.90;99.90;;;;;;6207139;23;20011;-74
2021/01/09 07:00:50;;;;;;;32.83;17.88;;;-1.00;99.90;;;;;;6246748;22;20234;-73
2021/01/09 07:03:17;;;;;;;37.20;19.55;;;-1.00;99.90;;;;;;6247512;23;20339;-73
2021/01/09 07:05:42;;;;;;;38.78;18.98;;;-1.00;99.90;;;;;;6246804;23;20042;-73
2021/01/09 07:08:09;;;;;;;38.78;18.35;;;-1.00;99.90;;;;;;6246873;23;20034;-73
2021/01/09 07:10:45;;;;;;;38.70;19.52;;;-1.00;99.90;;;;;;6244534;22;20000;-73
2021/01/09 07:13:11;;;;;;;37.97;19.52;;;-1.00;99.90;;;;;;6246775;23;20003;-74
2021/01/09 07:15:37;;;;;;;37.10;19.27;;;-1.00;99.90;;;;;;6220263;23;20004;-73
2021/01/09 07:18:06;;;;;;;36.28;18.63;;;-0.90;99.90;;;;;;6246592;23;20428;-73
2021/01/09 07:20:54;;;;;;;38.05;19.65;;;-0.90;99.90;;;;;;6245744;22;20317;-73
2021/01/09 07:23:21;;;;;;;36.88;19.13;;;-0.90;99.90;;;;;;6247079;23;20011;-73
2021/01/09 07:25:47;;;;;;;35.22;18.83;;;-0.80;99.90;;;;;;6246783;23;20012;-74
2021/01/09 07:28:20;;;;;;;34.88;19.17;;;-0.80;99.90;;;;;;6219905;23;20004;-73
2021/01/09 07:30:46;;;;;;;36.05;19.55;;;-0.80;99.90;;;;;;6246738;22;20008;-73
2021/01/09 07:33:13;;;;;;;39.75;19.13;;;-0.70;99.90;;;;;;6246799;23;20004;-74
2021/01/09 07:35:44;;;;;;;35.60;18.77;;;-0.60;99.90;;;;;;6246727;23;19996;-74
2021/01/09 07:38:13;;;;;;;33.85;19.02;;;-0.60;99.90;;;;;;6246998;23;20328;-74
2021/01/09 07:40:57;;;;;;;40.65;19.63;;;-0.60;99.90;;;;;;6246595;22;20011;-74
2021/01/09 07:43:33;;;;;;;33.08;18.20;;;-0.50;99.90;;;;;;6245163;23;20004;-74
2021/01/09 07:46:00;;;;;;;39.88;20.98;;;-0.50;99.90;;;;;;6220542;23;20007;-73
2021/01/09 07:48:34;;;;;;;35.38;19.27;;;-0.40;99.90;;;;;;6246814;23;20095;-74
2021/01/09 07:50:59;;;;;;;37.75;18.58;;;-0.30;99.90;;;;;;6246838;22;20019;-74
2021/01/09 07:53:27;;;;;;;35.45;18.75;;;-0.20;99.90;;;;;;6246827;23;20001;-73
2021/01/09 07:55:53;;;;;;;36.30;19.83;;;-0.20;99.90;;;;;;6245875;23;20011;-73
2021/01/09 07:58:38;;;;;;;34.30;19.38;;;-0.20;99.90;;;;;;6246835;23;20004;-73
2021/01/09 08:01:04;;;;;;;33.22;19.45;;;-0.10;99.90;;;;;;6244795;22;20054;-73
2021/01/09 08:03:32;;;;;;;35.25;18.98;;;-0.10;99.90;;;;;;6219684;23;20000;-74
2021/01/09 08:05:58;;;;;;;34.20;19.00;;;-0.10;99.90;;;;;;6219677;23;20019;-73
2021/01/09 08:08:25;;;;;;;35.17;19.48;;;0.00;99.90;;;;;;6246466;23;20000;-73
2021/01/09 08:10:50;;;;;;;34.05;18.10;;;0.10;99.90;;;;;;6246480;22;20000;-73
2021/01/09 08:13:17;;;;;;;36.25;19.05;;;0.20;99.90;;;;;;6219157;23;20099;-73
2021/01/09 08:15:43;;;;;;;31.02;17.63;;;0.30;99.90;;;;;;6245913;23;20000;-73
2021/01/09 08:18:10;;;;;;;35.85;18.73;;;0.30;99.90;;;;;;6246107;23;20071;-74
2021/01/09 08:20:36;;;;;;;35.47;18.30;;;0.30;99.90;;;;;;6246370;22;20034;-74
2021/01/09 08:23:03;;;;;;;32.53;18.45;;;0.30;99.90;;;;;;6219355;23;20344;-73
2021/01/09 08:25:31;;;;;;;34.17;18.13;;;0.40;99.90;;;;;;6245029;23;20385;-73
2021/01/09 08:28:01;;;;;;;38.85;19.15;;;0.40;99.90;;;;;;6244732;23;20007;-74
2021/01/09 08:30:35;;;;;;;35.45;18.80;;;0.30;99.90;;;;;;6246527;22;20070;-74
2021/01/09 08:33:11;;;;;;;34.70;18.40;;;0.30;99.90;;;;;;6244662;23;20008;-74
2021/01/09 08:35:48;;;;;;;31.00;17.67;;;0.30;99.90;;;;;;6246282;23;20075;-73
2021/01/09 08:38:14;;;;;;;32.58;17.27;;;0.40;99.90;;;;;;6244665;23;20348;-73
2021/01/09 08:40:42;;;;;;;28.98;16.30;;;0.50;99.90;;;;;;6246251;22;19992;-74
2021/01/09 08:43:10;;;;;;;35.25;18.27;;;0.60;99.90;;;;;;6246376;23;19996;-74
2021/01/09 08:45:43;;;;;;;30.67;17.40;;;0.60;99.90;;;;;;6246475;23;20071;-73
2021/01/09 08:48:11;;;;;;;33.60;16.73;;;0.60;99.90;;;;;;6245056;23;20004;-74
2021/01/09 08:50:52;;;;;;;32.08;18.70;;;0.60;99.90;;;;;;6219381;23;20016;-73
2021/01/09 08:53:18;;;;;;;30.75;17.95;;;0.50;99.90;;;;;;6219413;23;20339;-73
2021/01/09 08:55:44;;;;;;;30.27;17.20;;;0.50;99.90;;;;;;6219402;23;19996;-73
2021/01/09 08:58:13;;;;;;;32.75;20.10;;;0.50;99.90;;;;;;6246134;23;20007;-74
2021/01/09 09:00:39;;;;;;;33.05;17.73;;;0.60;99.90;;;;;;6219140;23;20039;-73
2021/01/09 09:03:08;;;;;;;36.88;19.33;;;0.60;99.90;;;;;;6246071;23;20000;-74
2021/01/09 09:05:35;;;;;;;33.97;17.65;;;0.50;99.90;;;;;;6246101;23;20008;-74
2021/01/09 09:08:03;;;;;;;29.77;17.80;;;0.50;99.90;;;;;;6246217;23;20079;-73
2021/01/09 09:10:31;;;;;;;32.35;17.55;;;0.50;99.90;;;;;;6244035;23;20512;-73
2021/01/09 09:13:19;;;;;;;30.50;17.25;;;0.50;99.90;;;;;;6246224;23;20000;-73
2021/01/09 09:15:46;;;;;;;24.20;14.55;;;0.60;99.90;;;;;;6245999;23;20000;-73
2021/01/09 09:18:12;;;;;;;23.67;13.60;;;0.80;99.90;;;;;;6245825;23;20028;-74
2021/01/09 09:20:43;;;;;;;28.80;14.48;;;1.00;99.90;;;;;;6218850;23;20379;-73
2021/01/09 09:23:15;;;;;;;21.15;12.35;;;1.30;99.90;;;;;;6219149;23;19996;-73
2021/01/09 09:25:41;;;;;;;24.05;11.05;;;1.60;99.90;;;;;;6245859;23;20000;-73
2021/01/09 09:28:06;;;;;;;20.92;11.75;;;2.00;99.90;;;;;;6219090;23;20449;-74
2021/01/09 09:30:32;;;;;;;19.70;11.65;;;2.60;99.90;;;;;;6246018;22;20011;-74
2021/01/09 09:33:10;;;;;;;17.65;10.70;;;3.60;99.90;;;;;;6245740;23;20000;-75
2021/01/09 09:35:36;;;;;;;19.00;11.60;;;4.10;99.90;;;;;;6245783;23;20004;-74
2021/01/09 09:38:03;;;;;;;17.85;9.85;;;4.60;99.90;;;;;;6245600;23;20007;-74
2021/01/09 09:40:34;;;;;;;15.52;9.85;;;5.50;99.90;;;;;;6245708;22;20000;-74
2021/01/09 09:43:19;;;;;;;14.80;9.35;;;8.10;99.90;;;;;;6244253;23;20000;-74
2021/01/09 09:46:05;;;;;;;16.38;9.45;;;9.60;86.40;;;;;;6246167;23;19997;-75
2021/01/09 09:48:35;;;;;;;16.20;10.50;;;9.50;82.60;;;;;;6245769;23;20037;-74
2021/01/09 09:51:08;;;;;;;14.18;9.43;;;9.20;83.00;;;;;;6218651;23;20012;-74
2021/01/09 09:53:35;;;;;;;13.93;9.82;;;9.00;86.90;;;;;;6246175;23;20026;-74
2021/01/09 09:56:11;;;;;;;17.63;11.88;;;8.60;87.90;;;;;;6218913;23;20004;-74
2021/01/09 09:58:37;;;;;;;17.13;11.32;;;8.20;88.90;;;;;;6244108;23;20004;-74
2021/01/09 10:01:13;;;;;;;19.52;12.40;;;7.60;90.90;;;;;;6245966;22;20035;-74
2021/01/09 10:03:38;;;;;;;18.70;12.20;;;7.10;93.30;;;;;;6245882;23;20000;-74
2021/01/09 10:06:04;;;;;;;17.23;12.57;;;6.80;96.70;;;;;;6245654;23;20039;-74
2021/01/09 10:08:29;;;;;;;23.15;13.98;;;7.20;98.10;;;;;;6218894;23;20122;-74
2021/01/09 10:10:55;;;;;;;26.67;15.93;;;7.50;95.80;;;;;;6245633;22;20018;-74
2021/01/09 10:13:31;;;;;;;27.27;16.83;;;7.40;94.80;;;;;;6219053;23;20014;-74
2021/01/09 10:15:57;;;;;;;23.80;15.27;;;7.30;96.30;;;;;;6218736;23;20091;-74
2021/01/09 10:18:23;;;;;;;36.72;22.58;;;7.40;96.40;;;;;;6218718;23;20091;-75
2021/01/09 10:20:49;;;;;;;22.55;15.25;;;7.50;96.80;;;;;;6245787;22;20050;-74
2021/01/09 10:23:15;;;;;;;22.70;14.90;;;8.10;95.50;;;;;;6218826;23;20000;-74
2021/01/09 10:25:41;;;;;;;31.75;18.73;;;8.90;91.90;;;;;;6245620;23;20027;-74
2021/01/09 10:28:06;;;;;;;18.42;12.73;;;9.10;89.80;;;;;;6245601;23;20000;-75
2021/01/09 10:30:32;;;;;;;20.95;13.57;;;9.90;84.80;;;;;;6245821;22;20011;-75
2021/01/09 10:32:57;;;;;;;21.75;12.52;;;10.50;80.40;;;;;;6245913;23;20031;-76
2021/01/09 10:35:23;;;;;;;18.55;11.63;;;10.80;72.70;;;;;;6245556;23;19996;-75
2021/01/09 10:37:49;;;;;;;18.50;11.80;;;11.20;71.60;;;;;;6245611;23;20515;-75
2021/01/09 10:40:15;;;;;;;15.98;11.40;;;11.00;71.00;;;;;;6218445;23;20012;-75
2021/01/09 10:42:40;;;;;;;25.13;15.13;;;11.10;71.50;;;;;;6218789;23;20007;-75
2021/01/09 10:45:06;;;;;;;19.95;13.90;;;11.00;71.60;;;;;;6246044;23;20347;-74
2021/01/09 10:47:32;;;;;;;18.50;12.73;;;11.50;70.50;;;;;;6247518;23;20462;-75
2021/01/09 10:49:58;;;;;;;23.52;17.33;;;12.20;65.20;;;;;;6253458;22;20007;-78
2021/01/09 10:52:24;;;;;;;18.77;13.55;;;12.70;63.20;;;;;;6288166;22;20004;-78
2021/01/09 10:54:50;;;;;;;16.73;12.38;;;13.90;59.20;;;;;;6287057;22;20308;-79
2021/01/09 10:57:16;;;;;;;16.42;12.52;;;15.10;56.60;;;;;;6258237;22;20000;-78
2021/01/09 10:59:42;;;;;;;16.85;13.43;;;15.90;51.60;;;;;;6255000;22;20038;-78
2021/01/09 11:02:08;;;;;;;17.73;13.02;;;15.40;52.20;;;;;;6227545;23;20339;-78
2021/01/09 11:04:34;;;;;;;17.27;13.50;;;15.00;52.20;;;;;;6253168;23;20023;-78
2021/01/09 11:06:59;;;;;;;19.30;14.48;;;15.00;53.70;;;;;;6255782;23;20000;-78
2021/01/09 11:09:26;;;;;;;18.73;14.45;;;15.00;51.40;;;;;;6226752;23;20011;-78
2021/01/09 11:11:52;;;;;;;20.10;14.93;;;16.80;49.60;;;;;;6225893;23;20078;-78
2021/01/09 11:14:17;;;;;;;16.83;12.73;;;18.40;44.40;;;;;;6224575;23;20000;-78
2021/01/09 11:16:43;;;;;;;15.77;12.57;;;19.70;43.60;;;;;;6222589;23;20000;-78
2021/01/09 11:19:10;;;;;;;15.95;12.93;;;22.60;37.70;;;;;;6225117;23;20004;-78
2021/01/09 11:21:37;;;;;;;14.25;12.75;;;25.60;32.00;;;;;;6250760;22;20000;-78
2021/01/09 11:24:06;;;;;;;14.35;12.65;;;27.60;28.60;;;;;;6251498;23;20453;-78
2021/01/09 11:26:32;;;;;;;15.45;13.82;;;29.20;26.50;;;;;;6253207;23;20383;-78
2021/01/09 11:28:57;;;;;;;12.02;10.82;;;29.10;25.50;;;;;;6252138;23;20005;-77
2021/01/09 11:31:24;;;;;;;13.82;12.40;;;30.50;25.40;;;;;;6220411;23;20450;-77
2021/01/09 11:33:50;;;;;;;13.77;12.30;;;32.50;23.70;;;;;;6220004;23;20012;-77
2021/01/09 11:36:15;;;;;;;11.77;10.68;;;33.80;22.40;;;;;;6245452;23;20439;-77
2021/01/09 11:38:41;;;;;;;10.00;9.00;;;35.00;21.70;;;;;;6245455;23;20010;-77
2021/01/09 11:41:07;;;;;;;14.18;12.77;;;35.90;21.30;;;;;;6219906;23;20090;-78
2021/01/09 11:43:33;;;;;;;13.65;12.38;;;34.80;19.80;;;;;;6245862;23;20046;-77
2021/01/09 11:46:00;;;;;;;10.57;9.55;;;35.00;19.90;;;;;;6257344;23;20379;-78
2021/01/09 11:48:27;;;;;;;14.10;12.73;;;34.80;20.80;;;;;;6225515;23;20177;-78
2021/01/09 11:50:53;;;;;;;9.95;8.95;;;33.70;20.60;;;;;;6263299;22;20010;-78
2021/01/09 11:53:19;;;;;;;10.55;9.55;;;33.50;21.40;;;;;;6233368;23;20357;-78
2021/01/09 11:55:45;;;;;;;10.73;9.73;;;34.30;20.90;;;;;;6232528;23;20015;-78
2021/01/09 11:58:11;;;;;;;12.77;11.57;;;35.30;20.30;;;;;;6258473;23;20008;-78
2021/01/09 12:00:36;;;;;;;13.00;11.75;;;35.20;20.10;;;;;;6226020;23;20355;-78
2021/01/09 12:03:02;;;;;;;12.18;10.98;;;35.30;19.70;;;;;;6221803;23;20015;-77
2021/01/09 12:05:28;;;;;;;15.35;13.93;;;31.60;21.30;;;;;;6246672;23;20046;-77
2021/01/09 12:07:53;;;;;;;13.73;12.32;;;27.60;24.10;;;;;;6219611;23;20000;-77
2021/01/09 12:10:19;;;;;;;14.48;12.98;;;25.50;26.30;;;;;;6246232;22;20000;-75
2021/01/09 12:12:45;;;;;;;17.25;15.55;;;23.90;27.90;;;;;;6246860;23;20019;-75
2021/01/09 12:15:11;;;;;;;17.40;15.60;;;21.60;30.30;;;;;;6246320;23;20087;-75
2021/01/09 12:17:39;;;;;;;15.82;14.23;;;18.60;35.00;;;;;;6220083;23;20001;-76
2021/01/09 12:20:05;;;;;;;18.05;15.70;;;16.70;39.40;;;;;;6246234;22;20007;-76
2021/01/09 12:22:33;;;;;;;20.15;16.67;;;15.20;42.20;;;;;;6219524;23;20004;-76
2021/01/09 12:24:59;;;;;;;18.60;15.82;;;14.00;45.10;;;;;;6219471;23;20007;-76
2021/01/09 12:27:25;;;;;;;20.27;16.42;;;13.00;47.80;;;;;;6244697;23;20008;-76
2021/01/09 12:29:51;;;;;;;17.92;15.50;;;12.50;49.40;;;;;;6219373;22;20011;-76
2021/01/09 12:32:16;;;;;;;21.98;17.52;;;11.90;50.80;;;;;;6246265;23;20006;-76
2021/01/09 12:34:43;;;;;;;21.35;17.50;;;10.80;53.10;;;;;;6246223;23;20079;-76